sensor_id;sensor_type;location;lat;lon;timestamp;P1;durP1;ratioP1;P2;durP2;ratioP2
76065;SDS011;64763;48.928;8.474;2024-01-30T00:00:53;7.35;;;4.28;;
76065;SDS011;64763;48.928;8.474;2024-01-30T00:03:19;5.32;;;3.53;;
76065;SDS011;64763;48.928;8.474;2024-01-30T00:05:44;7.65;;;4.32;;
76065;SDS011;64763;48.928;8.474;2024-01-30T00:08:10;7.13;;;3.72;;
76065;SDS011;64763;48.928;8.474;2024-01-30T00:10:35;7.95;;;4.13;;
76065;SDS011;64763;48.928;8.474;2024-01-30T00:13:01;6.57;;;3.65;;
76065;SDS011;64763;48.928;8.474;2024-01-30T00:15:27;6.47;;;3.40;;
76065;SDS011;64763;48.928;8.474;2024-01-30T00:17:52;5.68;;;3.30;;
76065;SDS011;64763;48.928;8.474;2024-01-30T00:20:18;4.07;;;2.72;;
76065;SDS011;64763;48.928;8.474;2024-01-30T00:22:44;6.00;;;3.28;;
76065;SDS011;64763;48.928;8.474;2024-01-30T00:25:09;5.43;;;2.92;;
76065;SDS011;64763;48.928;8.474;2024-01-30T00:27:34;7.22;;;3.30;;
76065;SDS011;64763;48.928;8.474;2024-01-30T00:30:00;6.60;;;3.53;;
76065;SDS011;64763;48.928;8.474;2024-01-30T00:32:25;8.10;;;3.90;;
76065;SDS011;64763;48.928;8.474;2024-01-30T00:34:50;7.63;;;4.82;;
76065;SDS011;64763;48.928;8.474;2024-01-30T00:37:16;8.82;;;4.70;;
76065;SDS011;64763;48.928;8.474;2024-01-30T00:39:41;9.90;;;5.20;;
76065;SDS011;64763;48.928;8.474;2024-01-30T00:42:07;9.27;;;5.18;;
76065;SDS011;64763;48.928;8.474;2024-01-30T00:44:34;10.27;;;5.32;;
76065;SDS011;64763;48.928;8.474;2024-01-30T00:47:00;12.93;;;5.43;;
76065;SDS011;64763;48.928;8.474;2024-01-30T00:49:26;9.85;;;5.13;;
76065;SDS011;64763;48.928;8.474;2024-01-30T00:51:51;8.63;;;5.45;;
76065;SDS011;64763;48.928;8.474;2024-01-30T00:54:16;11.52;;;5.00;;
76065;SDS011;64763;48.928;8.474;2024-01-30T00:56:42;12.23;;;5.72;;
76065;SDS011;64763;48.928;8.474;2024-01-30T00:59:07;10.98;;;6.10;;
76065;SDS011;64763;48.928;8.474;2024-01-30T01:01:33;11.60;;;5.80;;
76065;SDS011;64763;48.928;8.474;2024-01-30T01:03:58;9.30;;;5.40;;
76065;SDS011;64763;48.928;8.474;2024-01-30T01:06:24;10.35;;;5.40;;
76065;SDS011;64763;48.928;8.474;2024-01-30T01:08:49;9.38;;;4.93;;
76065;SDS011;64763;48.928;8.474;2024-01-30T01:11:15;9.02;;;4.82;;
76065;SDS011;64763;48.928;8.474;2024-01-30T01:13:40;9.48;;;5.30;;
76065;SDS011;64763;48.928;8.474;2024-01-30T01:16:05;9.18;;;5.13;;
76065;SDS011;64763;48.928;8.474;2024-01-30T01:18:31;7.18;;;4.10;;
76065;SDS011;64763;48.928;8.474;2024-01-30T01:20:56;8.52;;;4.43;;
76065;SDS011;64763;48.928;8.474;2024-01-30T01:23:21;6.35;;;3.97;;
76065;SDS011;64763;48.928;8.474;2024-01-30T01:25:47;7.22;;;3.65;;
76065;SDS011;64763;48.928;8.474;2024-01-30T01:28:12;6.93;;;3.22;;
76065;SDS011;64763;48.928;8.474;2024-01-30T01:30:38;5.07;;;3.03;;
76065;SDS011;64763;48.928;8.474;2024-01-30T01:33:04;4.90;;;3.03;;
76065;SDS011;64763;48.928;8.474;2024-01-30T01:35:29;5.10;;;2.80;;
76065;SDS011;64763;48.928;8.474;2024-01-30T01:37:55;7.13;;;3.25;;
76065;SDS011;64763;48.928;8.474;2024-01-30T01:40:23;5.20;;;3.10;;
76065;SDS011;64763;48.928;8.474;2024-01-30T01:42:50;6.40;;;3.78;;
76065;SDS011;64763;48.928;8.474;2024-01-30T01:45:16;7.05;;;3.50;;
76065;SDS011;64763;48.928;8.474;2024-01-30T01:47:41;7.07;;;3.75;;
76065;SDS011;64763;48.928;8.474;2024-01-30T01:50:07;5.57;;;3.22;;
76065;SDS011;64763;48.928;8.474;2024-01-30T01:52:32;8.18;;;3.03;;
76065;SDS011;64763;48.928;8.474;2024-01-30T01:54:58;5.50;;;3.53;;
76065;SDS011;64763;48.928;8.474;2024-01-30T01:57:24;7.40;;;3.33;;
76065;SDS011;64763;48.928;8.474;2024-01-30T01:59:49;5.40;;;2.85;;
76065;SDS011;64763;48.928;8.474;2024-01-30T02:02:14;7.05;;;3.00;;
76065;SDS011;64763;48.928;8.474;2024-01-30T02:04:42;6.15;;;3.10;;
76065;SDS011;64763;48.928;8.474;2024-01-30T02:07:08;4.70;;;2.75;;
76065;SDS011;64763;48.928;8.474;2024-01-30T02:09:33;4.68;;;2.90;;
76065;SDS011;64763;48.928;8.474;2024-01-30T02:11:59;4.88;;;2.65;;
76065;SDS011;64763;48.928;8.474;2024-01-30T02:14:25;5.43;;;3.00;;
76065;SDS011;64763;48.928;8.474;2024-01-30T02:16:50;4.68;;;2.75;;
76065;SDS011;64763;48.928;8.474;2024-01-30T02:19:15;6.13;;;3.75;;
76065;SDS011;64763;48.928;8.474;2024-01-30T02:21:41;6.35;;;3.25;;
76065;SDS011;64763;48.928;8.474;2024-01-30T02:24:06;5.57;;;2.92;;
76065;SDS011;64763;48.928;8.474;2024-01-30T02:26:32;4.53;;;2.65;;
76065;SDS011;64763;48.928;8.474;2024-01-30T02:28:57;4.35;;;2.50;;
76065;SDS011;64763;48.928;8.474;2024-01-30T02:31:22;4.03;;;2.70;;
76065;SDS011;64763;48.928;8.474;2024-01-30T02:33:50;5.53;;;2.75;;
76065;SDS011;64763;48.928;8.474;2024-01-30T02:36:15;3.92;;;2.25;;
76065;SDS011;64763;48.928;8.474;2024-01-30T02:38:41;5.05;;;2.72;;
76065;SDS011;64763;48.928;8.474;2024-01-30T02:41:06;4.35;;;2.60;;
76065;SDS011;64763;48.928;8.474;2024-01-30T02:43:31;4.57;;;2.72;;
76065;SDS011;64763;48.928;8.474;2024-01-30T02:45:57;4.68;;;3.50;;
76065;SDS011;64763;48.928;8.474;2024-01-30T02:48:23;4.95;;;3.22;;
76065;SDS011;64763;48.928;8.474;2024-01-30T02:50:48;5.00;;;3.13;;
76065;SDS011;64763;48.928;8.474;2024-01-30T02:53:13;5.20;;;2.88;;
76065;SDS011;64763;48.928;8.474;2024-01-30T02:55:39;5.07;;;3.00;;
76065;SDS011;64763;48.928;8.474;2024-01-30T02:58:04;7.07;;;2.95;;
76065;SDS011;64763;48.928;8.474;2024-01-30T03:00:29;3.78;;;2.75;;
76065;SDS011;64763;48.928;8.474;2024-01-30T03:02:55;5.55;;;3.25;;
76065;SDS011;64763;48.928;8.474;2024-01-30T03:05:20;6.18;;;2.92;;
76065;SDS011;64763;48.928;8.474;2024-01-30T03:07:45;4.72;;;2.42;;
76065;SDS011;64763;48.928;8.474;2024-01-30T03:10:11;5.65;;;2.65;;
76065;SDS011;64763;48.928;8.474;2024-01-30T03:12:36;7.07;;;2.60;;
76065;SDS011;64763;48.928;8.474;2024-01-30T03:15:01;4.45;;;2.63;;
76065;SDS011;64763;48.928;8.474;2024-01-30T03:17:27;4.68;;;2.72;;
76065;SDS011;64763;48.928;8.474;2024-01-30T03:19:52;3.83;;;2.28;;
76065;SDS011;64763;48.928;8.474;2024-01-30T03:22:17;4.38;;;2.28;;
76065;SDS011;64763;48.928;8.474;2024-01-30T03:24:43;3.65;;;2.33;;
76065;SDS011;64763;48.928;8.474;2024-01-30T03:27:08;3.75;;;2.20;;
76065;SDS011;64763;48.928;8.474;2024-01-30T03:29:34;7.35;;;2.53;;
76065;SDS011;64763;48.928;8.474;2024-01-30T03:31:59;4.63;;;2.13;;
76065;SDS011;64763;48.928;8.474;2024-01-30T03:34:24;4.25;;;2.40;;
76065;SDS011;64763;48.928;8.474;2024-01-30T03:36:50;6.22;;;3.25;;
76065;SDS011;64763;48.928;8.474;2024-01-30T03:39:15;7.13;;;3.13;;
76065;SDS011;64763;48.928;8.474;2024-01-30T03:41:43;6.32;;;3.67;;
76065;SDS011;64763;48.928;8.474;2024-01-30T03:44:09;8.30;;;3.83;;
76065;SDS011;64763;48.928;8.474;2024-01-30T03:46:34;5.05;;;2.72;;
76065;SDS011;64763;48.928;8.474;2024-01-30T03:49:00;6.47;;;3.67;;
76065;SDS011;64763;48.928;8.474;2024-01-30T03:51:25;6.18;;;3.65;;
76065;SDS011;64763;48.928;8.474;2024-01-30T03:53:50;4.72;;;2.90;;
76065;SDS011;64763;48.928;8.474;2024-01-30T03:56:16;6.82;;;3.60;;
76065;SDS011;64763;48.928;8.474;2024-01-30T03:58:41;5.13;;;3.45;;
76065;SDS011;64763;48.928;8.474;2024-01-30T04:01:07;4.53;;;3.05;;
76065;SDS011;64763;48.928;8.474;2024-01-30T04:03:32;4.53;;;2.88;;
76065;SDS011;64763;48.928;8.474;2024-01-30T04:05:58;4.10;;;2.85;;
76065;SDS011;64763;48.928;8.474;2024-01-30T04:08:23;5.93;;;3.00;;
76065;SDS011;64763;48.928;8.474;2024-01-30T04:10:48;5.75;;;2.97;;
76065;SDS011;64763;48.928;8.474;2024-01-30T04:13:14;5.75;;;3.22;;
76065;SDS011;64763;48.928;8.474;2024-01-30T04:15:39;5.93;;;3.35;;
76065;SDS011;64763;48.928;8.474;2024-01-30T04:18:05;6.78;;;4.03;;
76065;SDS011;64763;48.928;8.474;2024-01-30T04:20:30;6.03;;;3.72;;
76065;SDS011;64763;48.928;8.474;2024-01-30T04:22:55;5.55;;;2.97;;
76065;SDS011;64763;48.928;8.474;2024-01-30T04:25:21;5.00;;;2.72;;
76065;SDS011;64763;48.928;8.474;2024-01-30T04:27:46;6.40;;;3.60;;
76065;SDS011;64763;48.928;8.474;2024-01-30T04:30:12;5.53;;;2.90;;
76065;SDS011;64763;48.928;8.474;2024-01-30T04:32:37;6.30;;;2.90;;
76065;SDS011;64763;48.928;8.474;2024-01-30T04:35:03;5.13;;;2.28;;
76065;SDS011;64763;48.928;8.474;2024-01-30T04:37:28;6.00;;;3.17;;
76065;SDS011;64763;48.928;8.474;2024-01-30T04:39:54;5.20;;;2.80;;
76065;SDS011;64763;48.928;8.474;2024-01-30T04:42:19;4.30;;;3.33;;
76065;SDS011;64763;48.928;8.474;2024-01-30T04:44:45;5.85;;;2.85;;
76065;SDS011;64763;48.928;8.474;2024-01-30T04:47:10;9.70;;;3.42;;
76065;SDS011;64763;48.928;8.474;2024-01-30T04:49:38;11.60;;;3.75;;
76065;SDS011;64763;48.928;8.474;2024-01-30T04:52:04;7.13;;;3.20;;
76065;SDS011;64763;48.928;8.474;2024-01-30T04:54:29;6.63;;;3.25;;
76065;SDS011;64763;48.928;8.474;2024-01-30T04:56:55;6.40;;;3.78;;
76065;SDS011;64763;48.928;8.474;2024-01-30T04:59:20;6.13;;;3.58;;
76065;SDS011;64763;48.928;8.474;2024-01-30T05:01:45;5.10;;;3.35;;
76065;SDS011;64763;48.928;8.474;2024-01-30T05:04:11;5.82;;;3.05;;
76065;SDS011;64763;48.928;8.474;2024-01-30T05:06:37;5.35;;;3.25;;
76065;SDS011;64763;48.928;8.474;2024-01-30T05:09:02;5.35;;;3.30;;
76065;SDS011;64763;48.928;8.474;2024-01-30T05:11:29;5.43;;;2.67;;
76065;SDS011;64763;48.928;8.474;2024-01-30T05:13:55;5.80;;;3.47;;
76065;SDS011;64763;48.928;8.474;2024-01-30T05:16:20;7.18;;;3.88;;
76065;SDS011;64763;48.928;8.474;2024-01-30T05:18:45;6.10;;;3.70;;
76065;SDS011;64763;48.928;8.474;2024-01-30T05:21:11;4.90;;;3.38;;
76065;SDS011;64763;48.928;8.474;2024-01-30T05:23:36;7.47;;;3.67;;
76065;SDS011;64763;48.928;8.474;2024-01-30T05:26:01;5.47;;;3.08;;
76065;SDS011;64763;48.928;8.474;2024-01-30T05:28:28;5.82;;;3.20;;
76065;SDS011;64763;48.928;8.474;2024-01-30T05:30:54;6.45;;;3.63;;
76065;SDS011;64763;48.928;8.474;2024-01-30T05:33:19;9.45;;;4.00;;
76065;SDS011;64763;48.928;8.474;2024-01-30T05:35:45;8.50;;;3.60;;
76065;SDS011;64763;48.928;8.474;2024-01-30T05:38:11;6.35;;;3.20;;
76065;SDS011;64763;48.928;8.474;2024-01-30T05:40:36;7.85;;;3.05;;
76065;SDS011;64763;48.928;8.474;2024-01-30T05:43:02;7.10;;;3.45;;
76065;SDS011;64763;48.928;8.474;2024-01-30T05:45:27;6.50;;;3.97;;
76065;SDS011;64763;48.928;8.474;2024-01-30T05:47:53;6.43;;;3.42;;
76065;SDS011;64763;48.928;8.474;2024-01-30T05:50:21;6.13;;;3.80;;
76065;SDS011;64763;48.928;8.474;2024-01-30T05:52:48;6.43;;;3.90;;
76065;SDS011;64763;48.928;8.474;2024-01-30T05:55:13;6.63;;;4.35;;
76065;SDS011;64763;48.928;8.474;2024-01-30T05:57:39;9.70;;;4.80;;
76065;SDS011;64763;48.928;8.474;2024-01-30T06:00:05;7.47;;;4.25;;
76065;SDS011;64763;48.928;8.474;2024-01-30T06:02:31;15.00;;;6.05;;
76065;SDS011;64763;48.928;8.474;2024-01-30T06:04:56;19.98;;;8.07;;
76065;SDS011;64763;48.928;8.474;2024-01-30T06:07:21;16.10;;;7.07;;
76065;SDS011;64763;48.928;8.474;2024-01-30T06:09:47;13.07;;;6.25;;
76065;SDS011;64763;48.928;8.474;2024-01-30T06:12:12;20.25;;;8.35;;
76065;SDS011;64763;48.928;8.474;2024-01-30T06:14:38;27.90;;;11.10;;
76065;SDS011;64763;48.928;8.474;2024-01-30T06:17:03;18.95;;;9.05;;
76065;SDS011;64763;48.928;8.474;2024-01-30T06:19:29;15.10;;;7.85;;
76065;SDS011;64763;48.928;8.474;2024-01-30T06:21:55;13.02;;;7.30;;
76065;SDS011;64763;48.928;8.474;2024-01-30T06:24:20;16.58;;;8.38;;
76065;SDS011;64763;48.928;8.474;2024-01-30T06:26:45;14.85;;;7.07;;
76065;SDS011;64763;48.928;8.474;2024-01-30T06:29:11;17.20;;;7.53;;
76065;SDS011;64763;48.928;8.474;2024-01-30T06:31:40;15.65;;;7.57;;
76065;SDS011;64763;48.928;8.474;2024-01-30T06:34:06;10.27;;;5.75;;
76065;SDS011;64763;48.928;8.474;2024-01-30T06:36:35;8.95;;;4.95;;
76065;SDS011;64763;48.928;8.474;2024-01-30T06:39:03;8.80;;;3.70;;
76065;SDS011;64763;48.928;8.474;2024-01-30T06:41:29;7.45;;;4.10;;
76065;SDS011;64763;48.928;8.474;2024-01-30T06:43:55;8.05;;;4.50;;
76065;SDS011;64763;48.928;8.474;2024-01-30T06:46:20;8.63;;;4.20;;
76065;SDS011;64763;48.928;8.474;2024-01-30T06:48:46;6.60;;;4.07;;
76065;SDS011;64763;48.928;8.474;2024-01-30T06:51:11;5.20;;;4.20;;
76065;SDS011;64763;48.928;8.474;2024-01-30T06:53:37;8.80;;;4.75;;
76065;SDS011;64763;48.928;8.474;2024-01-30T06:56:03;10.35;;;5.30;;
76065;SDS011;64763;48.928;8.474;2024-01-30T06:58:28;6.50;;;4.45;;
76065;SDS011;64763;48.928;8.474;2024-01-30T07:00:54;6.65;;;4.35;;
76065;SDS011;64763;48.928;8.474;2024-01-30T07:03:19;5.75;;;3.70;;
76065;SDS011;64763;48.928;8.474;2024-01-30T07:05:45;9.40;;;5.38;;
76065;SDS011;64763;48.928;8.474;2024-01-30T07:08:10;8.10;;;4.43;;
76065;SDS011;64763;48.928;8.474;2024-01-30T07:10:35;5.38;;;3.42;;
76065;SDS011;64763;48.928;8.474;2024-01-30T07:13:01;5.75;;;3.53;;
76065;SDS011;64763;48.928;8.474;2024-01-30T07:15:26;5.22;;;3.33;;
76065;SDS011;64763;48.928;8.474;2024-01-30T07:17:52;5.55;;;3.20;;
76065;SDS011;64763;48.928;8.474;2024-01-30T07:20:17;6.43;;;3.28;;
76065;SDS011;64763;48.928;8.474;2024-01-30T07:22:45;8.88;;;4.05;;
76065;SDS011;64763;48.928;8.474;2024-01-30T07:25:10;11.00;;;4.97;;
76065;SDS011;64763;48.928;8.474;2024-01-30T07:27:36;6.85;;;3.75;;
76065;SDS011;64763;48.928;8.474;2024-01-30T07:30:01;4.70;;;2.80;;
76065;SDS011;64763;48.928;8.474;2024-01-30T07:32:27;18.90;;;6.82;;
76065;SDS011;64763;48.928;8.474;2024-01-30T07:34:52;20.95;;;7.38;;
76065;SDS011;64763;48.928;8.474;2024-01-30T07:37:17;36.00;;;12.85;;
76065;SDS011;64763;48.928;8.474;2024-01-30T07:39:43;26.13;;;11.10;;
76065;SDS011;64763;48.928;8.474;2024-01-30T07:42:08;18.33;;;8.82;;
76065;SDS011;64763;48.928;8.474;2024-01-30T07:44:34;18.67;;;8.52;;
76065;SDS011;64763;48.928;8.474;2024-01-30T07:46:59;13.27;;;6.68;;
76065;SDS011;64763;48.928;8.474;2024-01-30T07:49:25;13.55;;;5.90;;
76065;SDS011;64763;48.928;8.474;2024-01-30T07:51:50;12.63;;;5.10;;
76065;SDS011;64763;48.928;8.474;2024-01-30T07:54:15;10.68;;;5.07;;
76065;SDS011;64763;48.928;8.474;2024-01-30T07:56:41;7.82;;;4.93;;
76065;SDS011;64763;48.928;8.474;2024-01-30T07:59:09;10.50;;;5.53;;
76065;SDS011;64763;48.928;8.474;2024-01-30T08:01:35;11.55;;;6.45;;
76065;SDS011;64763;48.928;8.474;2024-01-30T08:04:00;33.65;;;18.10;;
76065;SDS011;64763;48.928;8.474;2024-01-30T08:06:25;30.48;;;15.20;;
76065;SDS011;64763;48.928;8.474;2024-01-30T08:08:51;28.40;;;14.75;;
76065;SDS011;64763;48.928;8.474;2024-01-30T08:11:19;24.80;;;12.93;;
76065;SDS011;64763;48.928;8.474;2024-01-30T08:13:45;20.75;;;11.52;;
76065;SDS011;64763;48.928;8.474;2024-01-30T08:16:10;18.05;;;10.70;;
76065;SDS011;64763;48.928;8.474;2024-01-30T08:18:35;14.88;;;9.13;;
76065;SDS011;64763;48.928;8.474;2024-01-30T08:21:01;15.50;;;9.45;;
76065;SDS011;64763;48.928;8.474;2024-01-30T08:23:26;16.85;;;8.13;;
76065;SDS011;64763;48.928;8.474;2024-01-30T08:25:52;19.80;;;10.77;;
76065;SDS011;64763;48.928;8.474;2024-01-30T08:28:17;22.23;;;12.38;;
76065;SDS011;64763;48.928;8.474;2024-01-30T08:30:43;21.10;;;11.05;;
76065;SDS011;64763;48.928;8.474;2024-01-30T08:33:08;15.23;;;9.10;;
76065;SDS011;64763;48.928;8.474;2024-01-30T08:35:33;13.88;;;6.95;;
76065;SDS011;64763;48.928;8.474;2024-01-30T08:37:59;13.95;;;7.15;;
76065;SDS011;64763;48.928;8.474;2024-01-30T08:40:25;11.15;;;7.03;;
76065;SDS011;64763;48.928;8.474;2024-01-30T08:42:50;18.95;;;10.00;;
76065;SDS011;64763;48.928;8.474;2024-01-30T08:45:15;28.80;;;11.63;;
76065;SDS011;64763;48.928;8.474;2024-01-30T08:47:41;24.38;;;11.55;;
76065;SDS011;64763;48.928;8.474;2024-01-30T08:50:06;30.30;;;12.70;;
76065;SDS011;64763;48.928;8.474;2024-01-30T08:52:32;28.08;;;12.27;;
76065;SDS011;64763;48.928;8.474;2024-01-30T08:54:59;19.75;;;9.73;;
76065;SDS011;64763;48.928;8.474;2024-01-30T08:57:24;17.65;;;8.32;;
76065;SDS011;64763;48.928;8.474;2024-01-30T08:59:53;18.98;;;9.15;;
76065;SDS011;64763;48.928;8.474;2024-01-30T09:02:18;18.15;;;8.75;;
76065;SDS011;64763;48.928;8.474;2024-01-30T09:04:44;16.17;;;7.45;;
76065;SDS011;64763;48.928;8.474;2024-01-30T09:07:09;18.10;;;8.75;;
76065;SDS011;64763;48.928;8.474;2024-01-30T09:09:35;17.27;;;8.25;;
76065;SDS011;64763;48.928;8.474;2024-01-30T09:12:01;14.05;;;7.22;;
76065;SDS011;64763;48.928;8.474;2024-01-30T09:14:31;13.40;;;6.97;;
76065;SDS011;64763;48.928;8.474;2024-01-30T09:16:57;10.07;;;5.65;;
76065;SDS011;64763;48.928;8.474;2024-01-30T09:19:22;11.95;;;6.50;;
76065;SDS011;64763;48.928;8.474;2024-01-30T09:21:48;12.25;;;6.47;;
76065;SDS011;64763;48.928;8.474;2024-01-30T09:24:13;11.85;;;6.07;;
76065;SDS011;64763;48.928;8.474;2024-01-30T09:26:38;12.25;;;6.10;;
76065;SDS011;64763;48.928;8.474;2024-01-30T09:29:04;14.80;;;6.10;;
76065;SDS011;64763;48.928;8.474;2024-01-30T09:31:29;10.98;;;6.10;;
76065;SDS011;64763;48.928;8.474;2024-01-30T09:33:54;8.30;;;5.50;;
76065;SDS011;64763;48.928;8.474;2024-01-30T09:36:20;9.07;;;4.32;;
76065;SDS011;64763;48.928;8.474;2024-01-30T09:38:45;8.52;;;4.65;;
76065;SDS011;64763;48.928;8.474;2024-01-30T09:41:11;12.48;;;6.03;;
76065;SDS011;64763;48.928;8.474;2024-01-30T09:43:36;10.38;;;5.60;;
76065;SDS011;64763;48.928;8.474;2024-01-30T09:46:02;8.80;;;5.47;;
76065;SDS011;64763;48.928;8.474;2024-01-30T09:48:29;12.35;;;6.25;;
76065;SDS011;64763;48.928;8.474;2024-01-30T09:50:56;8.65;;;4.65;;
76065;SDS011;64763;48.928;8.474;2024-01-30T09:53:22;10.30;;;6.43;;
76065;SDS011;64763;48.928;8.474;2024-01-30T09:55:47;8.43;;;5.43;;
76065;SDS011;64763;48.928;8.474;2024-01-30T09:58:15;7.40;;;4.90;;
76065;SDS011;64763;48.928;8.474;2024-01-30T10:00:41;13.65;;;5.50;;
76065;SDS011;64763;48.928;8.474;2024-01-30T10:03:06;7.93;;;4.82;;
76065;SDS011;64763;48.928;8.474;2024-01-30T10:05:31;13.57;;;6.03;;
76065;SDS011;64763;48.928;8.474;2024-01-30T10:08:05;10.02;;;5.15;;
76065;SDS011;64763;48.928;8.474;2024-01-30T10:10:31;12.38;;;6.88;;
76065;SDS011;64763;48.928;8.474;2024-01-30T10:12:56;16.60;;;7.35;;
76065;SDS011;64763;48.928;8.474;2024-01-30T10:15:21;22.10;;;8.68;;
76065;SDS011;64763;48.928;8.474;2024-01-30T10:17:49;15.10;;;6.75;;
76065;SDS011;64763;48.928;8.474;2024-01-30T10:20:15;14.32;;;7.63;;
76065;SDS011;64763;48.928;8.474;2024-01-30T10:22:44;17.30;;;7.95;;
76065;SDS011;64763;48.928;8.474;2024-01-30T10:25:10;12.95;;;6.70;;
76065;SDS011;64763;48.928;8.474;2024-01-30T10:27:36;13.63;;;6.80;;
76065;SDS011;64763;48.928;8.474;2024-01-30T10:30:01;17.20;;;6.70;;
76065;SDS011;64763;48.928;8.474;2024-01-30T10:32:29;15.45;;;7.22;;
76065;SDS011;64763;48.928;8.474;2024-01-30T10:34:54;12.55;;;6.78;;
76065;SDS011;64763;48.928;8.474;2024-01-30T10:37:19;11.23;;;6.07;;
76065;SDS011;64763;48.928;8.474;2024-01-30T10:39:46;12.68;;;6.25;;
76065;SDS011;64763;48.928;8.474;2024-01-30T10:42:12;11.93;;;6.20;;
76065;SDS011;64763;48.928;8.474;2024-01-30T10:44:44;13.38;;;5.88;;
76065;SDS011;64763;48.928;8.474;2024-01-30T10:47:11;10.40;;;5.68;;
76065;SDS011;64763;48.928;8.474;2024-01-30T10:49:38;10.73;;;5.68;;
76065;SDS011;64763;48.928;8.474;2024-01-30T10:52:05;12.55;;;6.68;;
76065;SDS011;64763;48.928;8.474;2024-01-30T10:54:31;12.38;;;6.72;;
76065;SDS011;64763;48.928;8.474;2024-01-30T10:56:57;11.77;;;5.90;;
76065;SDS011;64763;48.928;8.474;2024-01-30T10:59:24;11.20;;;6.63;;
76065;SDS011;64763;48.928;8.474;2024-01-30T11:01:50;11.77;;;6.65;;
76065;SDS011;64763;48.928;8.474;2024-01-30T11:04:16;14.00;;;6.88;;
76065;SDS011;64763;48.928;8.474;2024-01-30T11:06:41;12.85;;;6.07;;
76065;SDS011;64763;48.928;8.474;2024-01-30T11:09:10;11.52;;;6.68;;
76065;SDS011;64763;48.928;8.474;2024-01-30T11:11:56;13.68;;;6.88;;
76065;SDS011;64763;48.928;8.474;2024-01-30T11:14:25;8.10;;;4.95;;
76065;SDS011;64763;48.928;8.474;2024-01-30T11:16:51;10.88;;;6.03;;
76065;SDS011;64763;48.928;8.474;2024-01-30T11:19:22;9.52;;;5.30;;
76065;SDS011;64763;48.928;8.474;2024-01-30T11:21:50;7.78;;;4.63;;
76065;SDS011;64763;48.928;8.474;2024-01-30T11:24:18;8.20;;;5.13;;
76065;SDS011;64763;48.928;8.474;2024-01-30T11:26:44;11.63;;;6.32;;
76065;SDS011;64763;48.928;8.474;2024-01-30T11:29:09;20.30;;;8.93;;
76065;SDS011;64763;48.928;8.474;2024-01-30T11:31:38;9.82;;;5.75;;
76065;SDS011;64763;48.928;8.474;2024-01-30T11:34:04;8.32;;;5.07;;
76065;SDS011;64763;48.928;8.474;2024-01-30T11:36:30;6.00;;;3.83;;
76065;SDS011;64763;48.928;8.474;2024-01-30T11:38:58;7.47;;;4.93;;
76065;SDS011;64763;48.928;8.474;2024-01-30T11:41:24;8.93;;;4.68;;
76065;SDS011;64763;48.928;8.474;2024-01-30T11:43:53;5.25;;;3.53;;
76065;SDS011;64763;48.928;8.474;2024-01-30T11:46:19;4.88;;;3.30;;
76065;SDS011;64763;48.928;8.474;2024-01-30T11:48:44;4.63;;;3.15;;
76065;SDS011;64763;48.928;8.474;2024-01-30T11:51:09;8.48;;;3.38;;
76065;SDS011;64763;48.928;8.474;2024-01-30T11:53:38;6.82;;;3.35;;
76065;SDS011;64763;48.928;8.474;2024-01-30T11:56:05;5.20;;;3.40;;
76065;SDS011;64763;48.928;8.474;2024-01-30T11:58:31;7.57;;;3.10;;
76065;SDS011;64763;48.928;8.474;2024-01-30T12:00:56;6.90;;;4.10;;
76065;SDS011;64763;48.928;8.474;2024-01-30T12:03:22;7.18;;;3.97;;
76065;SDS011;64763;48.928;8.474;2024-01-30T12:05:54;6.60;;;4.07;;
76065;SDS011;64763;48.928;8.474;2024-01-30T12:08:20;8.07;;;4.65;;
76065;SDS011;64763;48.928;8.474;2024-01-30T12:10:45;6.38;;;3.80;;
76065;SDS011;64763;48.928;8.474;2024-01-30T12:13:11;5.95;;;3.80;;
76065;SDS011;64763;48.928;8.474;2024-01-30T12:15:36;5.90;;;3.88;;
76065;SDS011;64763;48.928;8.474;2024-01-30T12:18:05;6.10;;;3.88;;
76065;SDS011;64763;48.928;8.474;2024-01-30T12:20:31;7.22;;;3.78;;
76065;SDS011;64763;48.928;8.474;2024-01-30T12:22:56;7.22;;;4.03;;
76065;SDS011;64763;48.928;8.474;2024-01-30T12:25:22;7.53;;;4.25;;
76065;SDS011;64763;48.928;8.474;2024-01-30T12:27:49;6.20;;;3.60;;
76065;SDS011;64763;48.928;8.474;2024-01-30T12:30:15;7.78;;;4.35;;
76065;SDS011;64763;48.928;8.474;2024-01-30T12:32:41;6.28;;;3.67;;
76065;SDS011;64763;48.928;8.474;2024-01-30T12:35:11;7.70;;;3.85;;
76065;SDS011;64763;48.928;8.474;2024-01-30T12:37:38;11.23;;;6.63;;
76065;SDS011;64763;48.928;8.474;2024-01-30T12:40:04;11.07;;;5.35;;
76065;SDS011;64763;48.928;8.474;2024-01-30T12:42:31;9.07;;;4.80;;
76065;SDS011;64763;48.928;8.474;2024-01-30T12:44:57;7.38;;;4.55;;
76065;SDS011;64763;48.928;8.474;2024-01-30T12:47:23;7.45;;;3.92;;
76065;SDS011;64763;48.928;8.474;2024-01-30T12:49:48;9.43;;;4.65;;
76065;SDS011;64763;48.928;8.474;2024-01-30T12:52:15;7.07;;;3.90;;
76065;SDS011;64763;48.928;8.474;2024-01-30T12:54:41;9.80;;;4.20;;
76065;SDS011;64763;48.928;8.474;2024-01-30T12:57:06;7.38;;;4.05;;
76065;SDS011;64763;48.928;8.474;2024-01-30T12:59:33;9.23;;;4.85;;
76065;SDS011;64763;48.928;8.474;2024-01-30T13:02:00;9.07;;;4.68;;
76065;SDS011;64763;48.928;8.474;2024-01-30T13:04:26;7.45;;;4.50;;
76065;SDS011;64763;48.928;8.474;2024-01-30T13:06:52;8.23;;;4.78;;
76065;SDS011;64763;48.928;8.474;2024-01-30T13:09:17;7.28;;;4.68;;
76065;SDS011;64763;48.928;8.474;2024-01-30T13:11:43;9.63;;;4.88;;
76065;SDS011;64763;48.928;8.474;2024-01-30T13:14:08;8.32;;;4.57;;
76065;SDS011;64763;48.928;8.474;2024-01-30T13:16:33;9.38;;;4.38;;
76065;SDS011;64763;48.928;8.474;2024-01-30T13:18:59;6.68;;;4.40;;
76065;SDS011;64763;48.928;8.474;2024-01-30T13:21:26;7.75;;;4.45;;
76065;SDS011;64763;48.928;8.474;2024-01-30T13:23:51;5.60;;;4.45;;
76065;SDS011;64763;48.928;8.474;2024-01-30T13:26:19;6.72;;;4.78;;
76065;SDS011;64763;48.928;8.474;2024-01-30T13:28:44;8.25;;;4.35;;
76065;SDS011;64763;48.928;8.474;2024-01-30T13:31:10;9.93;;;4.60;;
76065;SDS011;64763;48.928;8.474;2024-01-30T13:33:35;8.35;;;4.28;;
76065;SDS011;64763;48.928;8.474;2024-01-30T13:36:01;11.52;;;4.72;;
76065;SDS011;64763;48.928;8.474;2024-01-30T13:38:26;6.85;;;4.60;;
76065;SDS011;64763;48.928;8.474;2024-01-30T13:40:51;10.40;;;4.25;;
76065;SDS011;64763;48.928;8.474;2024-01-30T13:43:17;6.72;;;3.90;;
76065;SDS011;64763;48.928;8.474;2024-01-30T13:45:42;5.30;;;3.83;;
76065;SDS011;64763;48.928;8.474;2024-01-30T13:48:08;9.68;;;4.25;;
76065;SDS011;64763;48.928;8.474;2024-01-30T13:50:33;6.20;;;4.18;;
76065;SDS011;64763;48.928;8.474;2024-01-30T13:52:59;9.00;;;3.97;;
76065;SDS011;64763;48.928;8.474;2024-01-30T13:55:24;8.13;;;4.15;;
76065;SDS011;64763;48.928;8.474;2024-01-30T13:57:50;8.98;;;5.00;;
76065;SDS011;64763;48.928;8.474;2024-01-30T14:00:16;8.52;;;4.85;;
76065;SDS011;64763;48.928;8.474;2024-01-30T14:02:41;8.75;;;4.28;;
76065;SDS011;64763;48.928;8.474;2024-01-30T14:05:07;7.28;;;4.13;;
76065;SDS011;64763;48.928;8.474;2024-01-30T14:07:33;8.63;;;4.22;;
76065;SDS011;64763;48.928;8.474;2024-01-30T14:09:58;8.63;;;4.68;;
76065;SDS011;64763;48.928;8.474;2024-01-30T14:12:24;7.75;;;4.55;;
76065;SDS011;64763;48.928;8.474;2024-01-30T14:14:49;8.23;;;3.97;;
76065;SDS011;64763;48.928;8.474;2024-01-30T14:17:15;6.95;;;4.63;;
76065;SDS011;64763;48.928;8.474;2024-01-30T14:19:40;7.25;;;3.90;;
76065;SDS011;64763;48.928;8.474;2024-01-30T14:22:06;5.43;;;3.92;;
76065;SDS011;64763;48.928;8.474;2024-01-30T14:24:32;5.78;;;3.78;;
76065;SDS011;64763;48.928;8.474;2024-01-30T14:26:57;8.00;;;4.40;;
76065;SDS011;64763;48.928;8.474;2024-01-30T14:29:22;7.18;;;4.30;;
76065;SDS011;64763;48.928;8.474;2024-01-30T14:31:50;6.22;;;3.75;;
76065;SDS011;64763;48.928;8.474;2024-01-30T14:34:16;5.68;;;3.47;;